Lake of the Forest, Kansas
Current Conditions -  °F | °C
As of 1:53 AM on Friday 21 Nov 2014 (Local Time) from KIXD Reporting Station
Clear Clear  
Wind Chill: 17°   Ceiling: Unl
Heat Index: 25°   Visibility: 10mi
Dew Point: 17°   Wind: 7mph
Humidity: 72%   Direction: 80°E
Pressure: 30.24"   Gusts: NA
Location:  39.0619°N, 94.8881°W
Report Text: KIXD 210753Z AUTO 08006KT 10SM CLR M04/M08 A3024 RMK AO2 SLP249 T10391083
Loading
Personal Weather Stations






























Interactive Weather Map New forecast layout! Learn more

10-Day Weather Forecast

Advertisements
Track Severe Weather on mobile